Date,TemperatureHighF,TemperatureAvgF,TemperatureLowF,DewpointHighF,DewpointAvgF,DewpointLowF,HumidityHigh,HumidityAvg,HumidityLow,PressureMaxIn,PressureMinIn,WindSpeedMaxMPH,WindSpeedAvgMPH,GustSpeedMaxMPH,PrecipitationSumIn
2013-1-1,46.5,43.2,39.9,46.0,37.8,23.0,98,83,47,30.18,30.03,4,0,8,0.56
2013-1-2,45.5,41.7,39.1,45.0,39.5,36.0,98,92,83,30.20,29.99,3,0,6,0.10
2013-1-3,42.7,37.2,25.5,39.0,34.5,25.0,97,90,77,30.34,30.15,5,0,8,0.00
2013-1-4,44.6,30.9,20.0,30.0,23.0,19.0,97,75,45,30.41,30.28,4,0,6,0.00
2013-1-5,46.8,33.5,20.0,33.0,23.7,19.0,94,70,37,30.43,30.27,6,1,8,0.01
2013-1-6,56.2,39.3,29.3,41.0,33.6,27.0,96,82,33,30.27,30.09,6,0,10,0.01
2013-1-7,52.5,36.6,24.6,31.0,26.8,23.0,95,71,35,30.46,30.25,3,0,5,0.00
2013-1-8,52.8,35.5,21.5,44.0,31.3,20.0,96,85,63,30.50,30.39,4,0,8,0.00
2013-1-9,58.2,51.4,42.9,55.0,49.6,41.0,98,93,85,30.55,30.44,4,0,6,0.00
2013-1-10,64.3,51.8,42.8,55.0,48.1,42.0,99,88,64,30.59,30.42,2,0,4,0.02
2013-1-11,57.6,53.5,51.5,57.0,53.0,51.0,99,98,96,30.42,30.23,3,0,5,0.78
2013-1-12,69.9,61.8,57.8,62.0,58.8,57.0,98,90,73,30.26,30.20,5,1,8,0.03
2013-1-13,63.2,60.0,56.6,59.0,57.6,55.0,97,91,83,30.23,30.16,7,2,13,0.14
2013-1-14,61.7,59.0,48.0,61.0,58.2,47.0,98,97,92,30.24,30.14,7,1,11,1.40
2013-1-15,55.1,49.9,46.1,55.0,49.7,46.0,99,99,97,30.23,30.11,2,0,2,2.05
2013-1-16,55.9,52.0,46.0,55.0,51.7,46.0,100,98,93,30.10,30.03,3,0,7,0.57
2013-1-17,52.9,45.4,35.1,53.0,44.5,30.0,99,96,79,30.26,29.84,4,1,12,2.59
2013-1-18,50.1,36.5,27.3,31.0,24.7,17.0,95,67,31,30.54,30.27,4,0,9,0.00
2013-1-19,51.3,36.0,22.9,35.0,27.4,22.0,98,75,42,30.52,30.23,7,1,12,0.01
2013-1-20,60.6,41.1,26.7,37.0,29.6,24.0,94,68,30,30.22,30.10,5,0,7,0.00
2013-1-21,53.9,37.0,23.7,33.0,23.7,15.0,97,65,29,30.17,30.04,8,1,17,0.00
2013-1-22,37.3,28.5,21.6,21.0,10.6,2.0,81,50,28,30.27,30.05,5,1,8,0.00
2013-1-23,49.1,32.4,15.9,27.0,18.3,8.0,87,59,37,30.34,30.10,7,1,15,0.00
2013-1-24,45.0,37.4,23.5,31.0,18.3,6.0,78,48,26,30.46,30.04,8,2,16,0.00
2013-1-25,33.3,26.1,20.8,33.0,18.5,5.0,97,75,44,30.48,30.11,6,1,11,0.00
2013-1-26,42.6,34.0,26.5,35.0,31.7,26.0,98,91,69,30.39,30.14,1,0,3,0.02
2013-1-27,46.7,34.5,24.8,34.0,29.3,24.0,98,83,59,30.54,30.39,5,1,7,0.00
2013-1-28,60.2,45.9,38.1,49.0,40.3,30.0,95,81,66,30.49,30.32,11,2,13,0.00
2013-1-29,65.9,51.1,34.0,58.0,47.6,33.0,98,89,64,30.34,30.11,9,1,15,0.11
2013-1-30,61.6,57.3,44.3,60.0,55.4,42.0,98,93,85,30.10,29.58,14,4,23,3.24
2013-1-31,43.5,37.0,30.8,41.0,22.4,17.0,93,57,38,30.09,29.65,18,4,27,0.03
2013-2-1,40.4,31.7,21.0,31.0,13.3,0.0,75,49,26,30.37,29.98,10,2,22,0.00
2013-2-2,38.5,28.9,19.2,32.0,20.1,8.0,97,73,31,30.38,30.07,9,2,16,0.00
2013-2-3,47.1,36.1,26.2,34.0,26.7,22.0,95,71,39,30.07,29.94,7,2,16,0.01
2013-2-4,51.1,33.7,22.6,28.0,23.2,20.0,92,70,31,30.18,30.05,7,1,14,0.00
2013-2-5,57.8,41.2,28.7,40.0,30.4,26.0,90,69,35,30.09,29.99,10,1,16,0.00
2013-2-6,62.3,41.6,26.9,37.0,28.5,21.0,96,67,20,30.29,30.09,4,0,7,0.00
2013-2-7,43.7,38.0,31.4,41.0,34.4,28.0,98,87,56,30.31,30.05,2,0,3,0.49
2013-2-8,53.9,44.2,33.5,46.0,37.5,26.0,98,79,47,30.18,29.98,7,1,12,0.00
2013-2-9,60.1,39.4,23.1,29.0,23.5,13.0,95,62,17,30.39,30.16,4,0,6,0.00
2013-2-10,52.8,40.2,31.5,41.0,32.6,23.0,97,77,36,30.45,30.23,5,0,8,0.79
2013-2-11,57.6,49.0,40.5,54.0,44.5,32.0,99,86,48,30.24,30.06,8,1,13,0.39
2013-2-12,53.4,43.7,34.7,42.0,34.3,24.0,96,74,33,30.18,30.00,5,0,6,0.09
2013-2-13,49.2,41.2,30.3,43.0,37.8,28.0,98,88,64,30.00,29.72,8,1,15,0.05
2013-2-14,52.5,36.1,23.5,34.0,28.6,23.0,97,78,42,30.12,29.95,6,1,11,0.00
2013-2-15,57.3,39.9,23.0,37.0,28.6,22.0,98,70,31,30.17,30.01,14,1,15,0.00
2013-2-16,38.3,31.9,23.2,30.0,22.4,9.0,86,69,41,30.05,29.90,6,1,16,0.00
2013-2-17,41.7,29.0,20.6,16.0,6.8,-1.0,77,42,18,30.28,30.04,7,1,16,0.00
2013-2-18,53.0,34.3,17.3,26.0,20.3,15.0,90,61,30,30.39,30.23,5,1,11,0.00
2013-2-19,54.3,40.4,27.5,41.0,27.5,14.0,96,64,32,30.21,29.94,11,3,19,0.21
2013-2-20,49.3,33.4,19.4,22.0,15.8,9.0,89,55,21,30.18,30.08,3,0,5,0.00
2013-2-21,60.1,39.7,22.0,38.0,22.3,17.0,95,57,20,30.28,30.12,3,0,7,0.36
2013-2-22,40.6,38.4,35.9,40.0,37.3,34.0,98,95,90,30.30,30.14,2,0,4,0.67
2013-2-23,50.5,45.1,39.0,49.0,44.3,39.0,98,97,93,30.14,29.90,1,0,2,0.46
2013-2-24,59.2,45.4,30.6,46.0,36.6,27.0,99,76,34,30.12,29.93,4,1,9,0.00
2013-2-25,46.6,36.8,28.5,33.0,28.5,25.0,96,75,44,30.20,30.06,4,0,6,0.05
2013-2-26,43.0,36.3,32.3,39.0,34.8,31.0,97,94,78,30.07,29.64,6,1,11,2.67
2013-2-27,57.5,44.5,29.3,38.0,32.6,26.0,97,65,33,29.85,29.72,7,2,13,0.00
2013-2-28,46.1,37.8,27.5,33.0,25.3,21.0,86,61,48,29.95,29.79,5,1,15,0.00
2013-3-1,42.3,33.4,22.7,30.0,25.8,21.0,94,75,56,29.97,29.91,4,0,8,0.00
2013-3-2,41.4,34.4,27.2,33.0,25.5,18.0,94,72,43,29.98,29.88,5,1,9,0.05
2013-3-3,38.7,29.5,22.2,20.0,16.6,12.0,78,60,38,30.03,29.94,7,1,11,0.00
2013-3-4,53.6,34.0,16.3,27.0,18.8,14.0,91,60,23,30.17,30.02,8,1,9,0.00
2013-3-5,47.5,40.5,29.6,47.0,35.6,25.0,97,83,62,30.12,29.72,9,1,16,0.67
2013-3-6,41.0,33.6,27.7,27.0,22.9,17.0,88,66,48,30.17,29.75,7,2,14,0.00
2013-3-7,51.7,34.6,22.1,31.0,26.1,21.0,95,74,43,30.32,30.16,4,1,8,0.00
2013-3-8,56.7,37.9,21.4,29.0,21.3,13.0,95,60,22,30.36,30.26,7,1,14,0.00
2013-3-9,63.2,43.2,22.7,33.0,26.4,21.0,92,58,28,30.40,30.29,6,1,11,0.00
2013-3-10,65.1,48.4,34.1,36.0,32.9,29.0,87,60,28,30.36,30.23,6,1,9,0.00
2013-3-11,53.1,50.2,42.3,52.0,47.4,36.0,98,90,75,30.25,29.92,5,1,13,1.17
2013-3-12,56.7,47.9,33.8,51.0,41.8,32.0,99,82,51,30.11,29.84,5,1,10,0.41
2013-3-13,49.7,36.7,26.9,33.0,23.6,17.0,96,65,31,30.20,30.08,9,1,17,0.00
2013-3-14,51.7,35.8,25.7,23.0,16.7,13.0,74,49,26,30.33,30.20,7,2,10,0.00
2013-3-15,68.5,46.8,24.2,40.0,30.0,21.0,89,57,26,30.25,30.02,13,2,17,0.00
2013-3-16,76.1,62.6,44.6,45.0,41.7,39.0,83,49,28,30.02,29.88,11,2,19,0.00
2013-3-17,72.0,58.8,45.3,48.0,45.1,41.0,87,63,39,30.09,29.97,8,1,14,0.00
2013-3-18,54.7,43.6,40.4,46.0,41.5,39.0,98,92,72,30.14,29.93,4,0,5,0.69
2013-3-19,62.7,47.2,36.1,43.0,30.3,16.0,99,61,17,30.15,29.93,7,1,12,0.01
2013-3-20,55.0,41.8,31.0,29.0,17.6,9.0,80,43,16,30.17,29.89,8,1,22,0.00
2013-3-21,45.2,33.3,23.5,31.0,15.4,11.0,91,50,29,29.99,29.82,6,1,9,0.00
2013-3-22,45.7,34.3,22.2,24.0,19.5,16.0,81,57,35,30.08,30.00,8,1,13,0.00
2013-3-23,60.1,45.2,36.3,45.0,37.9,24.0,94,77,52,30.08,29.93,4,0,7,0.06
2013-3-24,47.0,42.6,40.0,44.0,40.8,39.0,97,93,79,29.99,29.59,5,1,10,1.10
2013-3-25,40.0,35.4,30.2,39.0,23.9,19.0,96,64,46,29.95,29.60,10,3,19,0.00
2013-3-26,42.9,33.5,26.3,23.0,21.1,19.0,83,62,42,30.23,29.94,6,1,11,0.00
2013-3-27,48.7,36.8,23.6,27.0,22.4,19.0,84,58,33,30.31,30.21,7,1,11,0.00
2013-3-28,57.9,36.4,21.6,28.0,20.9,9.0,94,62,15,30.36,30.23,7,1,14,0.00
2013-3-29,56.5,39.1,22.3,40.0,27.9,20.0,91,69,29,30.41,30.30,6,1,17,0.01
2013-3-30,64.2,49.5,39.1,44.0,39.7,37.0,97,73,40,30.30,30.14,7,1,9,0.04
2013-3-31,63.4,54.1,46.2,54.0,50.1,44.0,98,87,56,30.13,29.94,10,1,10,0.36
2013-4-1,68.2,55.8,44.1,52.0,41.6,30.0,98,64,31,30.07,29.94,7,1,15,0.00
2013-4-2,62.1,46.5,31.7,34.0,28.6,21.0,94,55,27,30.23,30.06,8,1,9,0.00
2013-4-3,61.3,49.6,40.3,32.0,22.5,17.0,55,35,23,30.32,30.20,3,1,8,0.00
2013-4-4,46.4,38.5,35.2,38.0,34.8,31.0,97,87,59,30.32,30.03,3,0,5,0.84
2013-4-5,62.1,46.6,36.1,46.0,37.2,29.0,98,75,30,30.16,29.96,8,1,13,0.00
2013-4-6,67.4,49.0,29.3,40.0,33.7,28.0,98,63,27,30.31,30.16,4,1,9,0.00
2013-4-7,66.6,53.7,35.8,45.0,40.8,34.0,92,65,43,30.30,30.20,7,2,13,0.00
2013-4-8,72.7,57.7,40.8,52.0,46.9,39.0,95,70,46,30.26,30.18,13,2,18,0.00
2013-4-9,78.8,62.9,44.0,56.0,51.2,43.0,97,69,43,30.32,30.22,6,1,15,0.00
2013-4-10,82.2,65.4,47.4,58.0,53.2,46.0,97,69,41,30.25,30.09,7,1,11,0.00
2013-4-11,74.6,65.6,58.2,63.0,56.8,53.0,94,75,50,30.10,29.81,8,2,15,0.89
2013-4-12,74.9,63.4,46.7,62.0,48.5,28.0,96,66,21,29.97,29.74,14,3,19,1.15
2013-4-13,74.4,55.1,35.9,42.0,37.4,32.0,96,59,24,30.15,29.95,4,1,9,0.00
2013-4-14,68.6,52.1,36.8,51.0,41.9,35.0,96,72,33,30.21,30.09,6,0,12,0.17
2013-4-15,67.0,57.4,51.1,58.0,54.0,50.0,98,89,69,30.31,30.07,3,0,7,0.24
2013-4-16,77.0,64.5,55.8,61.0,57.2,55.0,97,79,53,30.38,30.30,6,1,8,0.00
2013-4-17,77.3,61.0,53.7,65.0,58.1,53.0,98,91,57,30.38,30.25,8,0,9,1.65
2013-4-18,73.4,64.0,56.0,61.0,57.5,55.0,99,81,52,30.26,30.07,5,1,9,0.04
2013-4-19,64.4,59.6,46.1,63.0,56.9,42.0,95,91,72,30.07,29.86,10,3,23,1.03
2013-4-20,61.3,48.8,38.3,41.0,30.2,23.0,92,52,26,30.35,30.02,6,1,15,0.00
2013-4-21,62.1,46.4,30.9,39.0,33.2,29.0,97,66,33,30.50,30.36,5,1,11,0.00
2013-4-22,63.9,49.9,36.5,42.0,37.1,30.0,96,66,28,30.47,30.28,6,1,8,0.00
2013-4-23,72.0,52.0,31.8,46.0,39.4,31.0,97,68,33,30.36,30.19,4,1,13,0.00
2013-4-24,69.0,58.7,44.9,58.0,51.4,43.0,95,78,58,30.24,30.13,9,2,16,0.00
2013-4-25,70.0,55.3,41.1,56.0,35.7,27.0,93,55,21,30.41,30.18,7,1,10,0.00
2013-4-26,69.4,52.7,31.6,44.0,34.9,30.0,94,57,27,30.50,30.39,4,1,9,0.00
2013-4-27,55.0,51.7,49.7,52.0,48.7,43.0,98,90,68,30.47,30.34,3,0,5,0.90
2013-4-28,52.0,50.2,48.3,52.0,49.9,48.0,99,98,97,30.35,30.14,2,0,3,2.73
2013-4-29,71.3,60.2,50.9,59.0,54.2,51.0,99,82,57,30.16,30.04,9,1,11,0.08
2013-4-30,75.0,60.5,49.7,60.0,54.1,49.0,98,82,51,30.28,30.09,5,1,10,0.00
2013-5-1,64.2,58.9,55.1,56.0,52.7,51.0,94,80,65,30.38,30.28,7,1,10,0.00
2013-5-2,59.5,55.8,53.4,56.0,53.5,51.0,97,92,84,30.39,30.32,5,0,11,0.13
2013-5-3,58.6,54.1,51.4,54.0,51.7,49.0,98,92,76,30.33,30.18,6,1,10,0.12
2013-5-4,53.5,48.9,46.4,51.0,46.8,43.0,98,93,83,30.18,30.05,5,1,10,1.49
2013-5-5,49.5,48.2,46.5,49.0,47.6,46.0,99,98,96,30.08,29.91,7,0,11,5.06
2013-5-6,64.0,53.5,42.4,52.0,47.0,41.0,99,81,50,30.00,29.88,10,1,12,0.08
2013-5-7,65.4,51.9,39.1,52.0,44.7,39.0,98,80,45,30.06,29.97,4,0,7,0.00
2013-5-8,69.0,57.6,44.4,57.0,50.5,44.0,98,79,54,30.16,30.03,6,0,9,0.00
2013-5-9,77.2,60.3,45.6,58.0,52.1,45.0,98,78,42,30.22,30.14,4,0,7,0.00
2013-5-10,76.5,63.3,50.7,60.0,55.5,50.0,99,78,52,30.23,30.09,7,1,16,0.00
2013-5-11,73.1,64.4,53.8,62.0,56.7,52.0,95,77,56,30.10,29.95,4,1,10,0.00
2013-5-12,69.8,58.0,45.2,56.0,42.0,31.0,95,59,29,30.17,30.00,9,1,12,0.00
2013-5-13,66.7,52.3,38.5,37.0,31.0,23.0,81,49,20,30.29,30.15,7,1,9,0.00
2013-5-14,70.9,54.8,33.2,52.0,41.1,32.0,96,64,34,30.34,30.20,7,1,11,0.00
2013-5-15,88.8,69.9,50.0,58.0,52.7,48.0,94,59,26,30.24,30.10,6,1,12,0.00
2013-5-16,79.6,65.0,49.5,61.0,54.4,48.0,96,72,35,30.19,30.11,5,1,10,0.00
2013-5-17,79.8,65.3,52.5,61.0,56.5,52.0,97,76,40,30.25,30.16,5,1,10,0.00
2013-5-18,66.8,62.5,58.0,64.0,60.7,56.0,98,94,85,30.25,30.19,4,0,6,1.28
2013-5-19,73.4,66.2,62.1,66.0,63.2,61.0,99,90,73,30.24,30.14,4,0,8,0.15
2013-5-20,81.4,65.8,59.5,68.0,62.2,59.0,98,90,55,30.25,30.18,3,0,7,0.11
2013-5-21,83.8,65.4,58.3,70.0,62.0,58.0,99,90,51,30.20,30.11,7,0,12,0.84
2013-5-22,81.3,67.1,58.4,68.0,62.8,58.0,99,87,58,30.16,30.02,7,1,11,0.48
2013-5-23,80.8,68.7,60.0,68.0,58.7,51.0,99,74,36,30.09,29.99,8,1,11,0.07
2013-5-24,70.0,60.9,50.7,55.0,44.5,34.0,95,59,28,30.34,30.05,10,1,13,0.00
2013-5-25,75.3,58.3,38.9,49.0,41.2,34.0,95,58,24,30.42,30.30,4,1,7,0.00
2013-5-26,74.3,58.7,45.5,55.0,48.8,43.0,94,73,37,30.40,30.29,4,0,6,0.05
2013-5-27,79.0,64.0,47.1,59.0,53.5,46.0,98,72,40,30.39,30.28,8,1,11,0.00
2013-5-28,80.6,68.1,56.1,61.0,58.1,55.0,97,73,48,30.35,30.29,7,1,11,0.00
2013-5-29,82.4,69.8,56.9,64.0,59.9,56.0,97,73,47,30.37,30.31,6,1,8,0.00
2013-5-30,82.4,67.7,55.0,64.0,59.3,54.0,98,77,48,30.41,30.31,7,0,8,0.00
2013-5-31,81.7,69.4,59.0,64.0,60.3,58.0,98,75,46,30.37,30.26,5,1,11,0.01
2013-6-1,79.7,70.9,63.3,64.0,62.8,60.0,96,77,56,30.27,30.18,5,1,13,0.02
2013-6-2,75.0,67.1,64.1,69.0,65.3,63.0,98,94,80,30.21,30.06,4,0,7,2.94
2013-6-3,79.4,68.6,61.9,68.0,63.6,62.0,99,85,61,30.12,30.00,4,0,7,0.00
2013-6-4,81.6,69.4,59.8,68.0,62.2,58.0,98,80,48,30.23,30.11,6,0,8,0.00
2013-6-5,80.5,70.0,64.0,68.0,64.6,62.0,97,84,60,30.23,30.09,5,0,10,0.61
2013-6-6,75.2,68.1,62.7,68.0,65.0,62.0,98,90,75,30.12,29.93,4,0,7,0.04
2013-6-7,80.1,69.0,63.4,70.0,65.5,63.0,98,89,65,29.98,29.83,2,0,5,0.43
2013-6-8,81.2,70.7,62.7,69.0,64.4,61.0,98,82,53,30.24,29.98,4,0,8,0.11
2013-6-9,80.6,68.7,61.3,71.0,65.5,61.0,98,90,64,30.30,30.18,4,0,11,1.41
2013-6-10,76.2,69.3,65.0,67.0,65.6,63.0,97,88,67,30.18,30.06,7,1,17,1.18
2013-6-11,86.5,73.2,61.9,69.0,63.5,57.0,99,75,39,30.18,30.08,4,1,7,0.01
2013-6-12,90.7,73.5,60.4,75.0,67.2,60.0,98,82,50,30.20,30.11,3,0,6,0.00
2013-6-13,88.8,72.6,62.0,70.0,64.6,61.0,97,80,40,30.11,29.91,12,1,15,0.08
2013-6-14,81.6,69.3,57.4,65.0,56.4,51.0,98,68,38,30.20,29.98,5,1,9,0.01
2013-6-15,80.9,66.8,50.3,62.0,57.2,50.0,98,74,48,30.29,30.21,6,1,8,0.00
2013-6-16,83.0,70.1,55.8,66.0,61.5,55.0,98,77,51,30.29,30.18,5,1,14,0.00
2013-6-17,81.8,71.2,66.7,72.0,67.2,65.0,97,87,66,30.21,30.10,4,0,8,0.13
2013-6-18,78.6,69.8,62.5,70.0,66.2,61.0,97,89,69,30.12,29.97,5,1,9,0.06
2013-6-19,78.3,68.7,59.2,66.0,61.8,59.0,98,80,57,30.27,30.08,6,0,8,0.00
2013-6-20,78.4,67.3,59.1,67.0,62.1,58.0,98,85,57,30.39,30.27,4,0,9,0.00
2013-6-21,81.2,69.0,59.9,65.0,60.9,58.0,98,78,49,30.42,30.32,8,1,8,0.00
2013-6-22,82.3,69.0,57.3,63.0,58.1,49.0,98,73,33,30.39,30.27,4,0,8,0.00
2013-6-23,82.3,68.6,57.1,70.0,63.4,56.0,98,85,55,30.37,30.28,4,0,5,0.26
2013-6-24,80.7,71.4,64.1,73.0,67.2,64.0,98,87,65,30.37,30.26,3,0,7,0.12
2013-6-25,84.8,70.6,62.6,71.0,66.2,62.0,98,87,55,30.31,30.20,3,0,7,0.51
2013-6-26,86.3,72.7,63.4,73.0,66.8,63.0,99,84,54,30.22,30.09,5,0,8,0.00
2013-6-27,86.9,74.6,65.8,73.0,67.8,65.0,98,81,52,30.13,29.91,7,1,10,0.17
2013-6-28,88.6,73.7,63.3,71.0,66.2,61.0,98,81,41,30.00,29.80,7,1,14,0.09
2013-6-29,85.8,72.3,62.4,69.0,62.7,55.0,98,76,37,29.88,29.80,4,0,9,0.00
2013-6-30,84.8,70.6,57.5,66.0,61.3,57.0,97,76,41,29.97,29.86,5,1,10,0.00
2013-7-1,79.1,68.9,63.5,69.0,65.0,63.0,98,88,62,30.11,29.95,4,0,8,1.17
2013-7-2,82.1,70.9,63.7,70.0,66.3,63.0,99,86,58,30.28,30.11,5,1,9,0.14
2013-7-3,76.7,67.8,61.9,70.0,66.4,61.0,99,95,80,30.36,30.25,5,0,15,4.30
2013-7-4,73.5,65.9,62.2,71.0,65.4,62.0,99,98,90,30.37,30.29,3,0,10,2.65
2013-7-5,80.1,70.2,65.6,68.0,66.8,65.0,99,90,64,30.39,30.31,3,0,10,0.52
2013-7-6,79.8,70.1,65.7,71.0,67.8,65.0,99,92,71,30.36,30.27,6,0,10,0.91
2013-7-7,78.6,72.4,68.3,70.0,69.1,68.0,98,90,75,30.32,30.25,4,1,8,0.29
2013-7-8,82.3,72.7,66.3,72.0,68.9,66.0,98,88,64,30.36,30.28,4,0,7,0.14
2013-7-9,87.1,74.3,67.6,75.0,69.9,67.0,99,87,55,30.34,30.23,4,0,7,0.29
2013-7-10,83.8,72.5,68.1,74.0,69.7,67.0,98,91,63,30.30,30.13,4,0,6,0.28
2013-7-11,79.2,71.5,66.6,72.0,69.0,66.0,99,92,75,30.14,30.04,2,0,4,0.19
2013-7-12,81.2,70.3,63.1,75.0,66.7,63.0,99,89,61,30.16,30.05,5,0,8,0.24
2013-7-13,74.1,67.9,62.5,68.0,65.5,62.0,99,92,79,30.26,30.15,4,0,7,0.08
2013-7-14,72.3,69.1,65.7,70.0,68.0,65.0,99,96,88,30.43,30.25,5,0,10,1.13
2013-7-15,80.9,71.3,63.2,74.0,67.3,63.0,100,88,64,30.48,30.42,4,0,6,0.03
2013-7-16,88.6,75.7,67.1,74.0,69.2,64.0,99,83,44,30.50,30.41,4,0,7,0.01
2013-7-17,88.1,73.4,67.1,74.0,69.3,67.0,99,89,52,30.46,30.33,2,0,10,0.37
2013-7-18,87.5,75.0,66.1,74.0,69.0,66.0,99,84,55,30.38,30.25,6,0,7,0.00
2013-7-19,88.0,75.4,65.8,73.0,68.5,65.0,98,81,48,30.31,30.17,3,0,10,0.00
2013-7-20,84.7,72.5,68.0,78.0,69.9,68.0,98,92,64,30.22,30.10,6,0,8,0.29
2013-7-21,85.4,71.7,66.8,73.0,68.4,66.0,98,90,56,30.18,30.11,4,0,8,1.26
2013-7-22,83.0,72.4,65.5,73.0,68.7,65.0,99,89,61,30.17,30.02,5,1,8,0.40
2013-7-23,86.8,72.5,61.8,72.0,66.6,62.0,99,84,50,30.07,29.96,4,0,7,0.00
2013-7-24,84.6,71.2,64.8,72.0,66.9,64.0,98,88,58,30.04,29.95,3,0,6,0.02
2013-7-25,85.7,69.6,63.0,70.0,65.1,63.0,99,87,54,30.20,30.02,5,0,8,1.36
2013-7-26,82.8,70.2,62.1,70.0,65.9,62.0,99,87,59,30.25,30.17,5,0,8,0.42
2013-7-27,79.2,71.8,66.5,72.0,67.9,66.0,99,88,70,30.20,30.05,3,0,5,0.30
2013-7-28,83.1,72.0,64.6,71.0,66.2,63.0,98,83,57,30.19,30.07,4,0,9,0.00
2013-7-29,84.4,69.8,60.9,69.0,63.3,60.0,98,82,47,30.34,30.19,6,0,7,0.00
2013-7-30,82.8,68.7,57.1,70.0,63.7,57.0,99,85,52,30.39,30.29,3,0,7,0.43
2013-7-31,75.1,69.9,66.2,72.0,68.0,66.0,99,93,80,30.34,30.12,2,0,4,0.32
2013-8-1,82.7,71.2,65.1,72.0,68.0,65.0,99,90,66,30.15,30.06,4,0,8,0.00
2013-8-2,83.8,72.3,61.9,72.0,66.5,61.0,99,84,59,30.21,30.11,3,0,7,0.00
2013-8-3,84.6,73.1,65.3,72.0,67.0,64.0,98,83,51,30.21,30.13,2,0,5,0.00
2013-8-4,84.9,72.5,62.8,71.0,65.5,60.0,98,81,54,30.21,30.14,5,0,9,0.00
2013-8-5,81.7,70.9,60.6,69.0,64.6,59.0,97,82,61,30.24,30.14,5,0,12,0.00
2013-8-6,81.5,73.1,69.0,72.0,69.2,67.0,97,88,64,30.21,30.12,2,0,7,0.12
2013-8-7,74.3,69.8,67.3,72.0,69.1,67.0,99,97,90,30.23,30.17,2,0,7,2.25
2013-8-8,81.2,72.6,66.7,73.0,69.7,66.0,99,91,74,30.22,30.18,4,0,8,0.00
2013-8-9,82.1,73.5,67.2,73.0,70.3,67.0,99,90,70,30.26,30.19,3,0,7,0.04
2013-8-10,85.8,72.9,66.4,74.0,69.7,66.0,99,90,61,30.30,30.23,3,0,9,0.16
2013-8-11,87.6,73.0,64.9,73.0,68.7,65.0,99,87,54,30.32,30.24,4,0,8,0.01
2013-8-12,87.5,73.1,65.2,74.0,68.6,65.0,99,87,56,30.28,30.15,6,0,11,0.00
2013-8-13,84.9,72.9,65.9,72.0,68.0,64.0,99,86,57,30.16,30.00,3,0,8,0.16
2013-8-14,78.0,67.9,60.8,66.0,62.7,59.0,99,84,59,30.22,30.06,6,0,8,0.00
2013-8-15,67.7,63.1,58.3,62.0,58.8,56.0,96,86,68,30.28,30.20,3,0,6,0.00
2013-8-16,71.4,62.3,56.7,61.0,57.7,56.0,97,86,66,30.28,30.22,3,0,8,0.00
2013-8-17,68.3,63.5,58.8,62.0,60.1,56.0,98,89,69,30.32,30.26,2,0,7,0.14
2013-8-18,77.2,66.8,61.4,68.0,64.3,61.0,99,92,73,30.36,30.27,5,0,6,0.20
2013-8-19,75.6,67.5,63.4,70.0,65.8,63.0,99,94,78,30.35,30.24,2,0,4,1.95
2013-8-20,78.2,69.4,64.3,72.0,67.0,64.0,99,92,72,30.36,30.26,2,0,4,0.01
2013-8-21,74.5,68.8,65.7,71.0,67.6,65.0,99,96,85,30.40,30.29,1,0,4,0.26
2013-8-22,81.1,70.5,63.5,74.0,67.4,63.0,99,91,67,30.34,30.21,2,0,5,0.05
2013-8-23,84.0,69.9,62.3,72.0,66.1,62.0,99,89,55,30.25,30.14,3,0,6,0.18
2013-8-24,77.5,68.4,58.8,66.0,62.9,58.0,99,84,54,30.46,30.24,5,0,8,0.00
2013-8-25,77.4,64.6,54.6,64.0,58.3,54.0,99,83,52,30.54,30.42,5,0,9,0.00
2013-8-26,80.5,66.6,57.3,67.0,60.4,57.0,98,83,49,30.48,30.30,4,0,8,0.00
2013-8-27,85.0,68.2,56.6,70.0,62.9,56.0,99,85,51,30.33,30.19,3,0,7,0.00
2013-8-28,86.2,72.3,62.0,72.0,66.6,62.0,99,84,57,30.23,30.13,3,0,6,0.00
2013-8-29,88.7,74.2,63.3,73.0,67.8,63.0,98,82,49,30.16,30.09,4,0,8,0.00
2013-8-30,81.4,72.6,68.6,72.0,69.6,67.0,98,91,70,30.22,30.11,5,0,8,0.26
2013-8-31,84.8,72.9,65.6,73.0,68.9,65.0,99,88,60,30.14,30.06,4,0,9,0.14
2013-9-1,85.3,73.0,63.8,75.0,69.0,64.0,99,88,64,30.09,29.99,6,1,12,0.02
2013-9-2,85.0,72.2,66.6,73.0,67.8,65.0,98,87,56,30.09,30.00,3,0,6,0.11
2013-9-3,82.0,70.5,62.7,72.0,66.1,62.0,99,87,63,30.17,30.03,4,0,8,0.06
2013-9-4,83.1,69.9,59.8,70.0,64.9,59.0,99,86,59,30.28,30.16,5,0,8,0.01
2013-9-5,84.6,70.3,60.1,70.0,63.6,56.0,99,82,42,30.31,30.24,3,0,6,0.00
2013-9-6,81.5,66.3,55.8,65.0,60.5,55.0,99,84,55,30.35,30.23,4,0,7,0.00
2013-9-7,81.1,67.4,57.8,68.0,62.5,58.0,99,86,58,30.29,30.17,7,1,10,0.00
2013-9-8,81.3,69.3,60.1,70.0,64.9,60.0,99,87,61,30.19,30.11,4,0,5,0.00
2013-9-9,83.5,69.5,61.8,72.0,65.5,62.0,99,88,54,30.32,30.19,4,0,6,0.01
2013-9-10,84.6,71.2,62.6,71.0,65.6,62.0,99,85,56,30.41,30.32,4,0,7,0.00
2013-9-11,85.0,69.6,60.3,71.0,65.9,60.0,99,89,58,30.41,30.28,5,0,8,0.00
2013-9-12,83.6,69.4,64.3,72.0,67.1,64.0,99,93,59,30.28,30.05,2,0,10,0.12
2013-9-13,78.9,67.3,55.9,66.0,60.7,53.0,99,81,52,30.05,29.96,3,0,6,0.04
2013-9-14,76.3,60.2,48.6,60.0,53.8,48.0,99,82,47,30.26,30.05,4,0,7,0.00
2013-9-15,76.8,62.8,51.7,63.0,57.4,51.0,98,84,57,30.34,30.26,6,1,13,0.00
2013-9-16,81.0,65.5,56.4,67.0,60.3,56.0,99,85,53,30.31,30.23,4,0,6,0.00
2013-9-17,68.1,63.6,60.2,63.0,57.4,53.0,93,81,62,30.43,30.31,4,0,7,0.00
2013-9-18,70.9,62.1,56.3,61.0,57.9,55.0,96,86,66,30.41,30.30,4,0,10,0.00
2013-9-19,78.0,65.2,57.5,69.0,62.5,57.0,98,92,63,30.32,30.24,3,0,5,0.60
2013-9-20,80.1,67.7,60.1,69.0,63.6,60.0,99,88,61,30.25,30.09,4,0,10,0.00
2013-9-21,66.6,62.5,57.8,65.0,61.8,58.0,99,97,93,30.10,29.84,5,1,12,1.78
2013-9-22,74.9,61.8,52.7,61.0,56.4,53.0,100,84,54,30.05,29.89,3,0,6,0.01
2013-9-23,72.1,62.4,55.8,61.0,57.5,55.0,98,85,57,30.19,30.06,5,0,9,0.00
2013-9-24,72.7,62.5,54.5,62.0,58.9,54.0,99,89,64,30.21,30.07,4,0,7,0.00
2013-9-25,63.6,60.9,58.1,62.0,60.1,58.0,99,97,91,30.07,29.99,3,0,5,1.57
2013-9-26,71.0,61.3,55.8,63.0,58.9,55.0,99,92,73,30.18,30.01,3,0,8,0.00
2013-9-27,74.7,62.2,52.0,61.0,56.5,52.0,99,84,54,30.31,30.19,4,1,9,0.01
2013-9-28,69.8,61.5,55.0,59.0,56.2,54.0,98,83,62,30.37,30.27,4,0,8,0.00
2013-9-29,71.4,59.6,48.7,58.0,54.3,48.0,98,84,57,30.31,30.16,3,0,9,0.00
2013-9-30,72.1,60.8,54.1,60.0,56.6,54.0,98,87,59,30.23,30.14,4,0,7,0.00
2013-10-1,77.3,62.3,52.9,63.0,57.2,53.0,99,85,52,30.30,30.20,5,0,8,0.00
2013-10-2,77.5,62.8,53.5,64.0,57.7,53.0,99,86,51,30.32,30.23,3,0,8,0.00
2013-10-3,78.8,67.1,55.3,65.0,60.0,55.0,99,80,55,30.29,30.22,4,1,11,0.00
2013-10-4,80.7,64.9,54.5,66.0,59.7,54.0,99,85,50,30.32,30.24,7,0,7,0.01
2013-10-5,83.4,66.4,57.2,68.0,61.1,57.0,99,86,52,30.31,30.20,5,0,7,0.00
2013-10-6,79.2,65.4,56.1,65.0,60.7,56.0,99,86,56,30.22,30.04,7,1,13,0.18
2013-10-7,67.2,61.0,48.7,65.0,58.4,48.0,99,91,71,30.15,29.95,6,1,10,1.76
2013-10-8,67.3,55.3,45.2,54.0,49.4,45.0,99,83,54,30.32,30.14,5,1,11,0.00
2013-10-9,72.1,55.8,43.2,54.0,48.4,43.0,99,79,50,30.34,30.23,8,1,9,0.00
2013-10-10,74.2,55.8,42.7,58.0,49.7,42.0,99,83,48,30.26,30.14,5,0,9,0.00
2013-10-11,76.8,58.5,45.6,59.0,51.1,45.0,99,81,42,30.18,30.08,6,0,10,0.01
2013-10-12,74.4,58.9,45.7,61.0,54.3,45.0,99,86,57,30.24,30.13,5,0,7,0.00
2013-10-13,73.1,62.9,57.0,63.0,59.6,57.0,99,90,66,30.35,30.24,4,0,7,0.22
2013-10-14,67.0,61.5,57.6,62.0,59.7,57.0,99,93,77,30.36,30.27,4,0,7,0.02
2013-10-15,67.8,60.3,54.8,59.0,56.9,54.0,98,89,70,30.32,30.18,5,0,6,0.00
2013-10-16,67.7,59.6,52.6,59.0,55.8,52.0,98,88,71,30.21,30.09,5,1,11,0.00
2013-10-17,63.9,60.5,57.5,62.0,59.5,57.0,99,96,92,30.11,29.99,6,1,15,0.12
2013-10-18,68.8,57.8,51.8,57.0,53.0,50.0,99,85,58,30.15,30.04,5,1,11,0.00
2013-10-19,64.5,55.2,42.9,55.0,50.3,42.0,98,85,51,30.09,29.97,6,1,10,0.00
2013-10-20,65.6,48.6,35.9,48.0,42.1,35.0,99,82,39,30.20,30.06,5,0,12,0.01
2013-10-21,64.8,49.0,33.5,53.0,45.0,33.0,99,88,61,30.25,30.12,8,1,12,0.00
2013-10-22,70.1,57.0,48.4,55.0,50.8,45.0,98,83,44,30.13,29.93,5,1,9,0.01
2013-10-23,59.2,47.3,34.8,48.0,36.3,28.0,99,71,31,30.11,29.86,9,1,18,0.01
2013-10-24,58.4,42.7,29.2,39.0,32.8,28.0,98,72,43,30.24,30.11,13,2,17,0.00
2013-10-25,51.0,39.2,28.1,36.0,28.5,21.0,96,70,32,30.43,30.25,9,1,18,0.00
2013-10-26,54.6,38.7,23.7,38.0,30.8,23.0,97,77,45,30.42,30.15,10,1,14,0.00
2013-10-27,66.1,50.5,33.5,51.0,43.5,33.0,98,79,54,30.23,30.14,9,1,9,0.00
2013-10-28,65.2,53.4,44.9,56.0,50.1,44.0,98,89,62,30.36,30.20,5,0,8,0.05
2013-10-29,69.2,55.2,46.5,55.0,50.1,46.0,99,85,51,30.45,30.34,5,1,9,0.01
2013-10-30,75.0,59.9,48.7,58.0,52.9,48.0,99,81,48,30.41,30.28,7,1,12,0.00
2013-10-31,64.2,58.8,51.3,61.0,55.1,51.0,98,88,71,30.31,30.00,8,2,15,0.10
2013-11-1,72.0,62.7,50.6,61.0,57.9,50.0,98,85,51,29.99,29.77,9,3,23,0.27
2013-11-2,63.9,49.2,39.2,51.0,40.9,34.0,99,78,36,30.11,29.88,14,1,27,0.01
2013-11-3,58.7,46.2,34.2,40.0,36.3,33.0,95,71,41,30.44,30.09,8,1,11,0.00
2013-11-4,57.9,41.3,28.7,38.0,32.6,28.0,98,76,39,30.58,30.44,3,0,8,0.00
2013-11-5,58.8,42.7,30.2,38.0,33.4,29.0,98,74,33,30.60,30.48,4,0,8,0.00
2013-11-6,65.7,52.8,42.6,54.0,48.6,39.0,98,86,64,30.50,30.24,3,0,6,0.08
2013-11-7,65.1,52.8,41.9,58.0,44.4,27.0,98,76,41,30.24,30.10,8,1,11,0.03
2013-11-8,56.5,42.9,29.2,28.0,22.9,8.0,89,52,15,30.39,30.23,4,1,11,0.00
2013-11-9,55.3,40.6,24.7,36.0,29.9,23.0,96,69,40,30.43,30.30,6,1,12,0.00
2013-11-10,68.2,47.8,32.8,40.0,33.9,30.0,96,65,26,30.36,30.24,2,0,6,0.00
2013-11-11,60.7,42.0,26.9,35.0,31.1,26.0,97,71,32,30.42,30.25,5,0,8,0.00
2013-11-12,59.2,38.2,25.1,39.0,28.8,14.0,96,71,42,30.51,30.18,7,1,12,0.00
2013-11-13,47.8,31.8,17.9,20.0,14.1,6.0,84,54,21,30.56,30.48,4,1,9,0.00
2013-11-14,56.8,34.2,17.7,28.0,20.2,16.0,94,65,24,30.52,30.37,5,1,10,0.00
2013-11-15,52.0,42.9,26.9,48.0,39.5,23.0,98,88,64,30.38,30.27,2,0,6,0.27
2013-11-16,64.6,53.2,47.5,56.0,51.4,47.0,99,94,69,30.34,30.25,5,0,10,0.04
2013-11-17,60.6,56.1,53.1,57.0,55.3,53.0,99,97,87,30.31,30.02,5,0,11,0.70
2013-11-18,68.1,56.2,45.7,59.0,45.8,31.0,99,72,36,30.12,29.98,6,1,13,0.05
2013-11-19,54.0,43.3,31.3,33.0,27.1,18.0,89,57,24,30.31,30.10,10,1,16,0.00
2013-11-20,49.5,38.9,26.9,34.0,29.4,26.0,95,71,42,30.49,30.31,5,0,9,0.00
2013-11-21,48.0,44.3,40.9,48.0,40.5,32.0,98,86,70,30.54,30.45,1,0,2,0.44
2013-11-22,64.9,53.9,47.9,59.0,53.0,47.0,99,96,81,30.47,30.24,9,1,13,0.08
2013-11-23,54.8,48.4,34.3,54.0,40.2,15.0,99,76,36,30.26,30.18,7,1,11,0.01
2013-11-24,40.7,31.1,22.0,24.0,10.0,2.0,74,44,22,30.52,30.26,8,2,13,0.00
2013-11-25,43.4,30.9,19.4,24.0,14.2,-1.0,88,55,16,30.53,30.34,6,1,9,0.00
2013-11-26,42.7,38.1,31.6,43.0,37.2,27.0,99,97,79,30.33,29.72,2,0,3,4.93
2013-11-27,43.3,33.9,22.2,43.0,27.1,15.0,99,77,53,30.22,29.66,8,2,13,0.08
2013-11-28,48.2,29.2,15.9,27.0,20.9,15.0,96,75,32,30.50,30.22,7,0,10,0.00
2013-11-29,53.2,33.8,20.2,32.0,24.9,19.0,96,75,32,30.63,30.49,3,0,6,0.00
2013-11-30,48.3,32.2,21.1,31.0,24.5,20.0,98,77,42,30.64,30.41,4,0,8,0.00
2013-12-1,57.8,37.4,25.2,40.0,30.9,24.0,96,80,51,30.40,30.10,7,1,14,0.00
2013-12-2,55.9,40.6,26.7,43.0,36.2,26.0,98,86,61,30.10,29.88,4,0,8,0.00
2013-12-3,53.4,48.0,42.4,50.0,46.6,42.0,98,94,85,30.04,29.93,5,0,9,0.02
2013-12-4,62.5,54.4,49.0,58.0,53.1,49.0,99,95,79,30.17,30.03,10,2,18,0.01
2013-12-5,65.1,60.8,56.5,64.0,59.9,56.0,99,96,89,30.20,30.10,11,1,18,0.84
2013-12-6,66.3,64.1,53.6,64.0,62.6,53.0,97,95,89,30.15,30.07,18,5,30,1.32
2013-12-7,53.2,48.1,41.9,52.0,45.2,41.0,98,90,73,30.43,30.12,5,1,7,0.03
2013-12-8,43.4,39.0,37.2,43.0,38.5,37.0,99,98,95,30.43,30.26,3,0,4,0.50
2013-12-9,56.0,47.4,38.1,54.0,46.8,38.0,99,97,92,30.27,30.11,8,2,13,1.27
2013-12-10,56.7,43.9,25.7,50.0,38.5,24.0,99,83,45,30.37,29.97,9,1,12,0.30
2013-12-11,52.1,33.5,20.1,32.0,24.6,14.0,98,75,23,30.47,30.33,4,1,12,0.00
2013-12-12,42.7,30.1,21.2,27.0,20.5,14.0,95,72,34,30.45,30.34,4,0,10,0.00
2013-12-13,48.8,32.6,18.0,30.0,22.5,17.0,96,71,33,30.41,30.28,4,0,9,0.00
2013-12-14,44.3,38.2,34.4,44.0,36.2,30.0,99,92,81,30.31,29.84,4,0,8,1.32
2013-12-15,47.2,39.0,26.2,44.0,34.2,25.0,99,84,52,30.17,29.81,6,1,9,0.00
2013-12-16,54.5,36.3,22.8,35.0,26.8,22.0,97,73,33,30.24,30.15,10,1,17,0.01
2013-12-17,59.5,44.7,27.5,37.0,29.1,16.0,95,59,31,30.21,30.04,12,2,24,0.00
2013-12-18,50.4,35.2,23.7,27.0,20.9,15.0,89,61,25,30.36,30.13,2,0,9,0.00
2013-12-19,61.8,41.4,22.8,34.0,25.7,21.0,95,60,26,30.38,30.27,8,1,16,0.00
2013-12-20,60.4,45.7,30.6,49.0,35.3,27.0,89,69,34,30.31,30.21,7,1,14,0.00
2013-12-21,65.0,57.2,52.3,62.0,55.2,49.0,98,93,84,30.23,30.07,12,2,23,0.70
2013-12-22,64.2,59.0,55.7,62.0,58.2,56.0,99,97,89,30.17,30.05,14,2,24,3.95
2013-12-23,55.8,48.8,34.8,55.0,47.3,34.0,99,94,86,30.26,30.11,4,1,8,0.31
2013-12-24,39.7,31.1,21.3,34.0,25.0,18.0,99,80,54,30.44,30.25,9,1,11,0.01
2013-12-25,39.0,26.4,17.0,27.0,19.0,16.0,96,77,41,30.51,30.38,5,0,10,0.00
2013-12-26,49.1,30.4,18.9,28.0,23.3,18.0,96,78,42,30.41,30.29,6,0,6,0.00
2013-12-27,50.4,32.2,20.4,31.0,25.5,20.0,97,80,41,30.51,30.40,3,0,4,0.00
2013-12-28,40.4,31.8,21.1,38.0,29.9,20.0,98,92,73,30.48,30.16,3,0,3,0.43
2013-12-29,57.3,41.7,33.9,50.0,39.9,33.0,99,94,64,30.14,29.88,3,0,7,1.35
2013-12-30,46.4,36.4,30.7,42.0,34.9,30.0,99,94,81,30.20,30.05,2,0,5,0.00
2013-12-31,44.7,33.8,26.2,34.0,28.9,24.0,98,84,47,30.42,30.19,3,0,6,0.00
2014-1-1,45.7,33.1,24.4,33.0,27.1,24.0,98,81,44,30.42,30.18,9,1,16,0.00
2014-1-2,44.2,36.9,23.6,43.0,34.5,12.0,98,91,61,30.18,29.73,9,2,14,0.09